createdAt,value
2019-03-08T00:00:24.880Z,98.80
2019-03-08T00:03:28.773Z,98.80
2019-03-08T00:06:32.577Z,99.00
2019-03-08T00:09:36.460Z,99.20
2019-03-08T00:12:40.313Z,99.30
2019-03-08T00:15:44.158Z,99.70
2019-03-08T00:18:48.034Z,99.80
2019-03-08T00:21:52.178Z,99.90
2019-03-08T00:24:56.022Z,99.10
2019-03-08T00:27:59.857Z,98.90
2019-03-08T00:31:03.901Z,98.40
2019-03-08T00:34:07.736Z,98.30
2019-03-08T00:37:11.614Z,98.30
2019-03-08T00:40:15.715Z,98.60
2019-03-08T00:43:19.595Z,98.90
2019-03-08T00:46:23.437Z,99.70
2019-03-08T00:49:27.258Z,99.90
2019-03-08T00:52:32.967Z,99.90
2019-03-08T00:55:37.193Z,99.90
2019-03-08T00:58:41.042Z,99.90
2019-03-08T01:01:44.906Z,99.90
2019-03-08T01:04:48.741Z,99.90
2019-03-08T01:07:52.573Z,99.90
2019-03-08T01:10:56.423Z,99.90
2019-03-08T01:14:00.255Z,99.90
2019-03-08T01:17:04.096Z,99.90
2019-03-08T01:20:10.129Z,99.90
2019-03-08T01:23:13.993Z,99.90
2019-03-08T01:26:17.813Z,99.90
2019-03-08T01:29:21.977Z,99.90
2019-03-08T01:32:25.816Z,99.90
2019-03-08T01:35:29.650Z,99.90
2019-03-08T01:38:33.518Z,99.90
2019-03-08T01:41:37.343Z,99.90
2019-03-08T01:44:41.197Z,99.90
2019-03-08T01:47:45.016Z,99.90
2019-03-08T01:50:48.845Z,99.90
2019-03-08T01:53:52.732Z,99.90
2019-03-08T01:56:56.535Z,99.90
2019-03-08T02:00:00.394Z,99.90
2019-03-08T02:03:04.695Z,99.90
2019-03-08T02:06:08.551Z,99.90
2019-03-08T02:09:12.435Z,99.90
2019-03-08T02:12:16.254Z,99.90
2019-03-08T02:15:20.093Z,99.70
2019-03-08T02:18:24.190Z,99.40
2019-03-08T02:21:28.054Z,98.90
2019-03-08T02:24:31.860Z,98.80
2019-03-08T02:27:35.903Z,98.60
2019-03-08T02:30:39.748Z,98.60
2019-03-08T02:33:43.604Z,98.10
2019-03-08T02:36:47.527Z,98.00
2019-03-08T02:39:51.363Z,98.00
2019-03-08T02:42:55.195Z,97.80
2019-03-08T02:45:59.023Z,97.50
2019-03-08T02:49:02.864Z,97.60
2019-03-08T02:52:06.690Z,97.20
2019-03-08T02:55:10.538Z,96.70
2019-03-08T02:58:14.375Z,96.60
2019-03-08T03:01:18.206Z,95.80
2019-03-08T03:04:22.054Z,95.30
2019-03-08T03:07:25.907Z,94.90
2019-03-08T03:10:29.737Z,95.40
2019-03-08T03:13:33.587Z,95.80
2019-03-08T03:16:37.634Z,96.10
2019-03-08T03:19:41.460Z,95.90
2019-03-08T03:22:45.323Z,96.00
2019-03-08T03:25:49.576Z,95.80
2019-03-08T03:28:53.442Z,95.80
2019-03-08T03:31:57.275Z,95.70
2019-03-08T03:35:01.113Z,95.70
2019-03-08T03:38:04.935Z,95.40
2019-03-08T03:41:08.807Z,95.70
2019-03-08T03:44:12.624Z,96.00
2019-03-08T03:47:16.474Z,95.60
2019-03-08T03:50:20.305Z,95.40
2019-03-08T03:53:24.146Z,95.30
2019-03-08T03:56:28.112Z,95.30
2019-03-08T03:59:31.912Z,95.30
2019-03-08T04:02:35.790Z,95.20
2019-03-08T04:05:39.619Z,95.00
2019-03-08T04:08:43.489Z,94.90
2019-03-08T04:11:47.284Z,94.70
2019-03-08T04:14:51.147Z,94.90
2019-03-08T04:17:54.972Z,94.80
2019-03-08T04:20:58.815Z,94.50
2019-03-08T04:24:02.933Z,94.50
2019-03-08T04:27:06.793Z,94.40
2019-03-08T04:30:18.621Z,94.60
2019-03-08T04:33:22.473Z,94.50
2019-03-08T04:36:26.320Z,94.70
2019-03-08T04:39:30.135Z,94.50
2019-03-08T04:42:33.997Z,94.50
2019-03-08T04:45:37.833Z,94.40
2019-03-08T04:48:41.697Z,94.50
2019-03-08T04:51:45.575Z,94.60
2019-03-08T04:54:49.419Z,94.50
2019-03-08T04:57:53.282Z,94.40
2019-03-08T05:00:57.124Z,94.50
2019-03-08T05:04:00.979Z,94.50
2019-03-08T05:07:04.795Z,94.40
2019-03-08T05:10:11.513Z,94.50
2019-03-08T05:13:15.633Z,94.60
2019-03-08T05:16:19.475Z,94.70
2019-03-08T05:19:23.296Z,94.50
2019-03-08T05:22:27.353Z,94.50
2019-03-08T05:25:31.176Z,94.60
2019-03-08T05:28:35.023Z,94.60
2019-03-08T05:31:38.935Z,94.30
2019-03-08T05:34:42.814Z,94.50
2019-03-08T05:37:47.055Z,94.70
2019-03-08T05:40:50.875Z,94.40
2019-03-08T05:43:54.780Z,94.60
2019-03-08T05:46:58.694Z,94.30
2019-03-08T05:50:02.524Z,94.50
2019-03-08T05:53:06.394Z,94.50
2019-03-08T05:56:10.234Z,94.50
2019-03-08T05:59:14.129Z,94.40
2019-03-08T06:02:18.051Z,94.10
2019-03-08T06:05:21.913Z,94.20
2019-03-08T06:08:25.761Z,94.00
2019-03-08T06:11:29.637Z,93.80
2019-03-08T06:14:33.443Z,93.50
2019-03-08T06:17:37.289Z,93.50
2019-03-08T06:20:41.115Z,93.10
2019-03-08T06:23:45.007Z,93.00
2019-03-08T06:26:48.835Z,93.10
2019-03-08T06:29:52.707Z,93.00
2019-03-08T06:32:56.553Z,92.90
2019-03-08T06:36:00.418Z,92.90
2019-03-08T06:39:06.097Z,92.90
2019-03-08T06:42:09.899Z,92.80
2019-03-08T06:45:16.795Z,92.80
2019-03-08T06:48:21.044Z,92.50
2019-03-08T06:51:25.833Z,92.60
2019-03-08T06:54:29.663Z,92.50
2019-03-08T06:57:33.718Z,92.50
2019-03-08T07:00:48.202Z,92.70
2019-03-08T07:03:52.037Z,92.80
2019-03-08T07:06:55.897Z,92.80
2019-03-08T07:09:59.754Z,92.40
2019-03-08T07:13:03.992Z,92.80
2019-03-08T07:16:13.056Z,92.10
2019-03-08T07:19:13.595Z,91.80
2019-03-08T07:22:18.985Z,91.60
2019-03-08T07:25:24.418Z,91.10
2019-03-08T07:28:33.039Z,91.30
2019-03-08T07:31:38.543Z,90.70
2019-03-08T07:34:43.977Z,90.80
2019-03-08T07:37:52.096Z,90.50
2019-03-08T07:40:57.533Z,90.60
2019-03-08T07:44:20.712Z,90.30
2019-03-08T07:47:42.712Z,90.60
2019-03-08T07:51:00.043Z,89.30
2019-03-08T07:54:08.413Z,89.00
2019-03-08T07:57:22.579Z,88.70
2019-03-08T08:00:40.513Z,89.50
2019-03-08T08:03:45.940Z,88.40
2019-03-08T08:06:54.169Z,87.50
2019-03-08T08:10:15.718Z,87.10
2019-03-08T08:13:27.123Z,86.90
2019-03-08T08:16:44.660Z,87.40
2019-03-08T08:19:53.536Z,84.60
2019-03-08T08:23:10.884Z,85.10
2019-03-08T08:26:16.374Z,84.50
2019-03-08T08:29:34.673Z,83.90
2019-03-08T08:32:34.618Z,83.20
2019-03-08T08:35:46.213Z,83.90
2019-03-08T08:39:00.817Z,82.90
2019-03-08T08:42:09.004Z,82.50
2019-03-08T08:45:14.536Z,82.60
2019-03-08T08:48:25.673Z,80.40
2019-03-08T08:51:33.793Z,80.10
2019-03-08T08:54:39.214Z,80.80
2019-03-08T08:57:44.615Z,79.70
2019-03-08T09:00:56.053Z,80.60
2019-03-08T09:04:04.215Z,78.80
2019-03-08T09:07:15.823Z,78.50
2019-03-08T09:10:21.275Z,75.40
2019-03-08T09:13:35.780Z,75.10
2019-03-08T09:16:41.225Z,74.10
2019-03-08T09:20:02.618Z,75.40
2019-03-08T09:23:17.167Z,74.30
2019-03-08T09:26:25.333Z,73.90
2019-03-08T09:29:30.720Z,71.50
2019-03-08T09:32:36.147Z,72.90
2019-03-08T09:35:56.419Z,72.20
2019-03-08T09:39:19.574Z,70.70
2019-03-08T09:42:26.461Z,71.00
2019-03-08T09:45:34.906Z,72.20
2019-03-08T09:48:58.861Z,70.40
2019-03-08T09:52:04.403Z,71.70
2019-03-08T09:55:26.903Z,69.80
2019-03-08T09:58:41.229Z,68.80
2019-03-08T10:02:01.755Z,68.60
2019-03-08T10:05:24.108Z,70.70
2019-03-08T10:08:41.314Z,70.90
2019-03-08T10:11:46.703Z,69.70
2019-03-08T10:14:57.673Z,69.80
2019-03-08T10:18:21.440Z,70.70
2019-03-08T10:21:32.739Z,71.00
2019-03-08T10:24:40.872Z,71.90
2019-03-08T10:27:46.283Z,70.40
2019-03-08T10:30:51.683Z,70.50
2019-03-08T10:33:57.113Z,70.30
2019-03-08T10:37:08.763Z,70.50
2019-03-08T10:40:18.873Z,70.50
2019-03-08T10:43:24.308Z,70.90
2019-03-08T10:46:29.749Z,71.80
2019-03-08T10:49:55.066Z,72.40
2019-03-08T10:52:57.289Z,72.50
2019-03-08T10:56:11.935Z,73.30
2019-03-08T10:59:26.113Z,72.20
2019-03-08T11:02:34.245Z,71.80
2019-03-08T11:05:45.837Z,73.00
2019-03-08T11:08:57.468Z,72.90
2019-03-08T11:12:08.905Z,72.40
2019-03-08T11:15:24.168Z,71.50
2019-03-08T11:18:24.565Z,70.20
2019-03-08T11:21:32.682Z,70.30
2019-03-08T11:24:38.093Z,68.40
2019-03-08T11:27:43.490Z,67.50
2019-03-08T11:31:03.812Z,68.40
2019-03-08T11:34:12.519Z,68.40
2019-03-08T11:37:17.975Z,67.00
2019-03-08T11:40:35.193Z,66.90
2019-03-08T11:43:43.593Z,65.70
2019-03-08T11:46:49.059Z,67.20
2019-03-08T11:50:10.813Z,67.20
2019-03-08T11:53:25.164Z,67.90
2019-03-08T11:56:55.643Z,69.10
2019-03-08T11:59:57.256Z,70.90
2019-03-08T12:03:18.674Z,70.30
2019-03-08T12:06:26.974Z,68.80
2019-03-08T12:09:41.709Z,69.70
2019-03-08T12:12:56.080Z,70.00
2019-03-08T12:16:13.798Z,70.40
2019-03-08T12:19:35.163Z,70.70
2019-03-08T12:22:55.745Z,70.90
2019-03-08T12:26:17.119Z,71.80
2019-03-08T12:29:25.224Z,68.20
2019-03-08T12:32:33.414Z,68.90
2019-03-08T12:35:38.854Z,65.70
2019-03-08T12:38:50.065Z,62.60
2019-03-08T12:41:55.483Z,59.50
2019-03-08T12:45:17.148Z,59.70
2019-03-08T12:48:25.522Z,58.90
2019-03-08T12:51:47.096Z,58.40
2019-03-08T12:54:58.015Z,57.80
2019-03-08T12:58:19.848Z,58.00
2019-03-08T13:01:34.353Z,60.00
2019-03-08T13:04:39.734Z,57.40
2019-03-08T13:07:45.157Z,57.50
2019-03-08T13:10:48.995Z,54.80
2019-03-08T13:13:52.855Z,54.40
2019-03-08T13:16:56.733Z,54.10
2019-03-08T13:20:00.584Z,56.40
2019-03-08T13:23:04.478Z,57.90
2019-03-08T13:26:08.309Z,60.00
2019-03-08T13:29:12.213Z,60.20
2019-03-08T13:32:16.064Z,57.70
2019-03-08T13:35:19.897Z,56.00
2019-03-08T13:38:23.797Z,56.90
2019-03-08T13:41:27.649Z,56.90
2019-03-08T13:44:31.502Z,57.70
2019-03-08T13:47:35.370Z,59.00
2019-03-08T13:50:39.248Z,60.60
2019-03-08T13:53:43.053Z,60.30
2019-03-08T13:56:47.134Z,59.70
2019-03-08T13:59:51.008Z,58.40
2019-03-08T14:02:54.815Z,60.30
2019-03-08T14:05:58.764Z,59.90
2019-03-08T14:09:04.530Z,61.50
2019-03-08T14:12:08.433Z,61.80
2019-03-08T14:15:16.434Z,61.30
2019-03-08T14:18:20.271Z,62.00
2019-03-08T14:21:24.194Z,61.40
2019-03-08T14:24:27.999Z,59.90
2019-03-08T14:27:31.858Z,58.90
2019-03-08T14:30:40.350Z,58.60
2019-03-08T14:33:44.195Z,61.40
2019-03-08T14:36:48.126Z,59.50
2019-03-08T14:39:51.983Z,60.50
2019-03-08T14:43:16.971Z,60.00
2019-03-08T14:46:22.595Z,59.90
2019-03-08T14:49:26.443Z,59.20
2019-03-08T14:52:30.295Z,58.90
2019-03-08T14:55:34.153Z,58.70
2019-03-08T14:58:40.287Z,58.80
2019-03-08T15:01:43.488Z,58.70
2019-03-08T15:04:47.280Z,60.30
2019-03-08T15:07:51.167Z,63.00
2019-03-08T15:10:55.202Z,64.00
2019-03-08T15:13:59.109Z,64.10
2019-03-08T15:17:09.067Z,64.10
2019-03-08T15:20:15.023Z,62.60
2019-03-08T15:23:18.118Z,62.40
2019-03-08T15:26:22.132Z,63.60
2019-03-08T15:29:26.235Z,64.30
2019-03-08T15:32:30.284Z,64.30
2019-03-08T15:35:34.155Z,65.80
2019-03-08T15:38:38.035Z,66.20
2019-03-08T15:41:41.893Z,67.20
2019-03-08T15:44:45.715Z,67.90
2019-03-08T15:47:49.808Z,69.30
2019-03-08T15:50:53.656Z,70.20
2019-03-08T15:53:57.533Z,69.30
2019-03-08T15:57:01.453Z,69.90
2019-03-08T16:00:24.404Z,71.00
2019-03-08T16:03:30.196Z,72.10
2019-03-08T16:06:33.755Z,73.10
2019-03-08T16:09:37.713Z,74.70
2019-03-08T16:12:41.569Z,82.80
2019-03-08T16:15:45.413Z,88.60
2019-03-08T16:18:49.244Z,90.50
2019-03-08T16:21:53.123Z,91.30
2019-03-08T16:24:57.089Z,92.20
2019-03-08T16:28:01.454Z,92.60
2019-03-08T16:31:10.176Z,92.20
2019-03-08T16:34:15.399Z,90.70
2019-03-08T16:37:20.610Z,90.80
2019-03-08T16:40:25.789Z,90.50
2019-03-08T16:43:47.368Z,89.70
2019-03-08T16:46:52.604Z,88.10
2019-03-08T16:50:06.695Z,88.80
2019-03-08T16:53:15.012Z,90.00
2019-03-08T16:56:36.645Z,91.30
2019-03-08T16:59:47.867Z,91.00
2019-03-08T17:02:58.994Z,91.60
2019-03-08T17:06:07.190Z,91.50
2019-03-08T17:09:15.660Z,91.50
2019-03-08T17:12:27.275Z,92.10
2019-03-08T17:15:49.219Z,91.90
2019-03-08T17:18:54.614Z,91.80
2019-03-08T17:22:00.039Z,91.90
2019-03-08T17:25:14.740Z,92.50
2019-03-08T17:28:38.305Z,92.00
2019-03-08T17:31:43.746Z,91.90
2019-03-08T17:35:04.355Z,91.90
2019-03-08T17:38:10.535Z,91.20
2019-03-08T17:41:22.708Z,91.00
2019-03-08T17:44:31.335Z,90.90
2019-03-08T17:47:45.833Z,90.60
2019-03-08T17:51:00.478Z,90.40
2019-03-08T17:54:18.397Z,90.30
2019-03-08T17:57:24.053Z,91.00
2019-03-08T18:00:32.519Z,91.00
2019-03-08T18:03:47.224Z,91.10
2019-03-08T18:06:52.634Z,92.00
2019-03-08T18:10:10.016Z,91.40
2019-03-08T18:13:15.460Z,91.10
2019-03-08T18:16:32.900Z,91.40
2019-03-08T18:19:41.036Z,91.40
2019-03-08T18:22:55.484Z,91.40
2019-03-08T18:26:00.924Z,91.50
2019-03-08T18:29:06.403Z,91.30
2019-03-08T18:32:28.054Z,91.20
2019-03-08T18:35:42.293Z,91.20
2019-03-08T18:38:50.378Z,91.60
2019-03-08T18:41:55.774Z,91.30
2019-03-08T18:45:10.675Z,91.20
2019-03-08T18:48:18.838Z,91.50
2019-03-08T18:51:36.115Z,91.60
2019-03-08T18:54:50.654Z,91.40
2019-03-08T18:57:58.904Z,90.90
2019-03-08T19:01:13.430Z,90.80
2019-03-08T19:04:35.525Z,90.80
2019-03-08T19:07:43.746Z,90.70
2019-03-08T19:11:05.517Z,90.80
2019-03-08T19:14:13.935Z,90.50
2019-03-08T19:17:36.034Z,90.90
2019-03-08T19:20:44.522Z,90.70
2019-03-08T19:23:55.694Z,90.60
2019-03-08T19:27:01.140Z,90.80
2019-03-08T19:30:18.317Z,90.50
2019-03-08T19:33:32.673Z,90.90
2019-03-08T19:36:50.415Z,90.50
2019-03-08T19:40:12.263Z,89.70
2019-03-08T19:43:32.703Z,88.70
2019-03-08T19:46:53.337Z,88.60
2019-03-08T19:50:15.083Z,85.70
2019-03-08T19:53:37.044Z,85.00
2019-03-08T19:56:42.575Z,84.00
2019-03-08T20:00:00.353Z,83.10
2019-03-08T20:03:05.964Z,82.20
2019-03-08T20:06:27.963Z,82.40
2019-03-08T20:09:45.435Z,82.40
2019-03-08T20:13:02.743Z,81.50
2019-03-08T20:16:24.582Z,81.70
2019-03-08T20:19:32.821Z,81.10
2019-03-08T20:22:54.264Z,80.60
2019-03-08T20:26:15.845Z,81.40
2019-03-08T20:29:39.238Z,81.20
2019-03-08T20:32:50.794Z,81.20
2019-03-08T20:36:08.984Z,81.90
2019-03-08T20:39:23.708Z,81.80
2019-03-08T20:42:29.133Z,81.00
2019-03-08T20:45:34.613Z,81.70
2019-03-08T20:48:38.412Z,81.90
2019-03-08T20:51:42.418Z,80.80
2019-03-08T20:54:46.241Z,81.40
2019-03-08T20:57:50.137Z,81.90
2019-03-08T21:00:53.973Z,80.60
2019-03-08T21:03:58.515Z,81.60
2019-03-08T21:07:02.366Z,80.50
2019-03-08T21:10:09.517Z,81.00
2019-03-08T21:13:13.424Z,81.40
2019-03-08T21:16:17.272Z,80.80
2019-03-08T21:19:21.149Z,81.40
2019-03-08T21:22:25.350Z,81.60
2019-03-08T21:25:29.178Z,82.40
2019-03-08T21:28:33.027Z,83.00
2019-03-08T21:31:36.912Z,83.40
2019-03-08T21:34:40.752Z,84.20
2019-03-08T21:37:44.601Z,84.70
2019-03-08T21:40:48.417Z,85.80
2019-03-08T21:43:52.292Z,85.80
2019-03-08T21:46:56.152Z,86.70
2019-03-08T21:49:59.993Z,88.10
2019-03-08T21:53:04.257Z,87.70
2019-03-08T21:56:08.120Z,88.40
2019-03-08T21:59:12.008Z,88.30
2019-03-08T22:02:15.855Z,88.50
2019-03-08T22:05:21.270Z,88.60
2019-03-08T22:08:25.115Z,89.10
2019-03-08T22:11:30.515Z,88.80
2019-03-08T22:14:34.363Z,88.60
2019-03-08T22:17:38.196Z,88.60
2019-03-08T22:20:42.263Z,89.60
2019-03-08T22:23:46.113Z,89.40
2019-03-08T22:26:49.994Z,89.80
2019-03-08T22:29:53.863Z,90.20
2019-03-08T22:32:57.683Z,89.70
2019-03-08T22:36:01.553Z,90.00
2019-03-08T22:39:06.933Z,90.00
2019-03-08T22:42:10.748Z,90.10
2019-03-08T22:45:15.514Z,89.40
2019-03-08T22:48:19.337Z,89.90
2019-03-08T22:51:23.183Z,90.00
2019-03-08T22:54:27.043Z,90.40
2019-03-08T22:57:30.898Z,90.60
2019-03-08T23:00:59.938Z,91.00
2019-03-08T23:04:04.276Z,91.30
2019-03-08T23:07:08.152Z,91.50
2019-03-08T23:10:12.712Z,91.50
2019-03-08T23:13:16.578Z,91.80
2019-03-08T23:16:20.453Z,92.20
2019-03-08T23:19:24.285Z,92.20
2019-03-08T23:22:28.133Z,92.80
2019-03-08T23:25:31.972Z,93.50
2019-03-08T23:28:37.440Z,94.00
2019-03-08T23:31:45.818Z,94.50
2019-03-08T23:34:49.671Z,95.10
2019-03-08T23:37:53.525Z,95.60
2019-03-08T23:40:57.335Z,96.20
2019-03-08T23:44:01.193Z,96.30
2019-03-08T23:47:05.072Z,96.50
2019-03-08T23:50:09.995Z,96.80
2019-03-08T23:53:14.116Z,97.00
2019-03-08T23:56:17.977Z,97.00
2019-03-08T23:59:21.808Z,97.00
